sensor_id;sensor_type;location;lat;lon;timestamp;P1;durP1;ratioP1;P2;durP2;ratioP2
5245;SDS011;54412;51.206;6.888;2022-10-31T00:02:21;13.17;;;6.23;;
5245;SDS011;54412;51.206;6.888;2022-10-31T00:04:46;11.83;;;6.07;;
5245;SDS011;54412;51.206;6.888;2022-10-31T00:07:12;11.23;;;5.73;;
5245;SDS011;54412;51.206;6.888;2022-10-31T00:09:37;24.77;;;6.53;;
5245;SDS011;54412;51.206;6.888;2022-10-31T00:12:03;10.70;;;5.90;;
5245;SDS011;54412;51.206;6.888;2022-10-31T00:14:29;11.00;;;6.43;;
5245;SDS011;54412;51.206;6.888;2022-10-31T00:16:55;28.97;;;6.53;;
5245;SDS011;54412;51.206;6.888;2022-10-31T00:19:20;13.27;;;6.90;;
5245;SDS011;54412;51.206;6.888;2022-10-31T00:21:46;12.83;;;6.60;;
5245;SDS011;54412;51.206;6.888;2022-10-31T00:24:16;7.90;;;5.37;;
5245;SDS011;54412;51.206;6.888;2022-10-31T00:26:41;19.73;;;6.80;;
5245;SDS011;54412;51.206;6.888;2022-10-31T00:29:07;14.23;;;5.90;;
5245;SDS011;54412;51.206;6.888;2022-10-31T00:31:33;18.40;;;7.47;;
5245;SDS011;54412;51.206;6.888;2022-10-31T00:33:59;12.27;;;6.30;;
5245;SDS011;54412;51.206;6.888;2022-10-31T00:36:25;14.03;;;6.50;;
5245;SDS011;54412;51.206;6.888;2022-10-31T00:38:50;14.77;;;5.93;;
5245;SDS011;54412;51.206;6.888;2022-10-31T00:41:16;11.37;;;6.73;;
5245;SDS011;54412;51.206;6.888;2022-10-31T00:43:43;15.03;;;6.37;;
5245;SDS011;54412;51.206;6.888;2022-10-31T00:46:09;9.23;;;5.60;;
5245;SDS011;54412;51.206;6.888;2022-10-31T00:48:36;14.60;;;6.63;;
5245;SDS011;54412;51.206;6.888;2022-10-31T00:51:02;9.13;;;5.70;;
5245;SDS011;54412;51.206;6.888;2022-10-31T00:53:28;11.50;;;5.67;;
5245;SDS011;54412;51.206;6.888;2022-10-31T00:55:53;12.07;;;7.20;;
5245;SDS011;54412;51.206;6.888;2022-10-31T00:58:19;15.13;;;7.03;;
5245;SDS011;54412;51.206;6.888;2022-10-31T01:00:48;12.73;;;7.47;;
5245;SDS011;54412;51.206;6.888;2022-10-31T01:03:24;20.13;;;6.53;;
5245;SDS011;54412;51.206;6.888;2022-10-31T01:06:01;13.67;;;6.70;;
5245;SDS011;54412;51.206;6.888;2022-10-31T01:08:30;16.60;;;6.23;;
5245;SDS011;54412;51.206;6.888;2022-10-31T01:11:00;13.40;;;6.13;;
5245;SDS011;54412;51.206;6.888;2022-10-31T01:13:35;8.10;;;5.67;;
5245;SDS011;54412;51.206;6.888;2022-10-31T01:16:01;13.73;;;5.87;;
5245;SDS011;54412;51.206;6.888;2022-10-31T01:18:30;11.03;;;6.50;;
5245;SDS011;54412;51.206;6.888;2022-10-31T01:20:57;15.77;;;6.60;;
5245;SDS011;54412;51.206;6.888;2022-10-31T01:23:30;16.43;;;6.80;;
5245;SDS011;54412;51.206;6.888;2022-10-31T01:26:04;13.17;;;6.33;;
5245;SDS011;54412;51.206;6.888;2022-10-31T01:28:38;15.13;;;6.93;;
5245;SDS011;54412;51.206;6.888;2022-10-31T01:31:29;12.60;;;7.23;;
5245;SDS011;54412;51.206;6.888;2022-10-31T01:33:58;12.93;;;6.90;;
5245;SDS011;54412;51.206;6.888;2022-10-31T01:36:34;13.33;;;6.83;;
5245;SDS011;54412;51.206;6.888;2022-10-31T01:39:12;7.57;;;5.50;;
5245;SDS011;54412;51.206;6.888;2022-10-31T01:41:41;9.60;;;6.30;;
5245;SDS011;54412;51.206;6.888;2022-10-31T01:46:46;16.60;;;6.50;;
5245;SDS011;54412;51.206;6.888;2022-10-31T01:49:46;12.27;;;6.13;;
5245;SDS011;54412;51.206;6.888;2022-10-31T01:53:02;12.43;;;7.27;;
5245;SDS011;54412;51.206;6.888;2022-10-31T01:55:16;13.63;;;5.93;;
5245;SDS011;54412;51.206;6.888;2022-10-31T01:57:51;15.80;;;7.00;;
5245;SDS011;54412;51.206;6.888;2022-10-31T02:00:23;15.63;;;6.83;;
5245;SDS011;54412;51.206;6.888;2022-10-31T02:02:49;9.90;;;5.57;;
5245;SDS011;54412;51.206;6.888;2022-10-31T02:05:18;14.00;;;6.80;;
5245;SDS011;54412;51.206;6.888;2022-10-31T02:08:13;14.20;;;6.53;;
5245;SDS011;54412;51.206;6.888;2022-10-31T02:11:00;8.83;;;6.03;;
5245;SDS011;54412;51.206;6.888;2022-10-31T02:13:27;11.27;;;6.40;;
5245;SDS011;54412;51.206;6.888;2022-10-31T02:15:55;15.30;;;6.37;;
5245;SDS011;54412;51.206;6.888;2022-10-31T02:18:24;9.37;;;5.90;;
5245;SDS011;54412;51.206;6.888;2022-10-31T02:21:07;15.53;;;5.67;;
5245;SDS011;54412;51.206;6.888;2022-10-31T02:24:00;10.67;;;5.87;;
5245;SDS011;54412;51.206;6.888;2022-10-31T02:32:31;11.50;;;6.10;;
5245;SDS011;54412;51.206;6.888;2022-10-31T02:41:13;11.33;;;6.40;;
5245;SDS011;54412;51.206;6.888;2022-10-31T02:46:53;8.40;;;6.30;;
5245;SDS011;54412;51.206;6.888;2022-10-31T02:49:48;13.73;;;6.87;;
5245;SDS011;54412;51.206;6.888;2022-10-31T02:54:52;16.77;;;6.87;;
5245;SDS011;54412;51.206;6.888;2022-10-31T02:57:36;10.43;;;5.80;;
5245;SDS011;54412;51.206;6.888;2022-10-31T03:00:07;17.07;;;6.43;;
5245;SDS011;54412;51.206;6.888;2022-10-31T03:02:37;13.57;;;6.57;;
5245;SDS011;54412;51.206;6.888;2022-10-31T03:05:11;14.93;;;6.13;;
5245;SDS011;54412;51.206;6.888;2022-10-31T03:19:09;9.97;;;6.90;;
5245;SDS011;54412;51.206;6.888;2022-10-31T03:21:53;41.77;;;7.80;;
5245;SDS011;54412;51.206;6.888;2022-10-31T03:24:31;10.20;;;6.83;;
5245;SDS011;54412;51.206;6.888;2022-10-31T03:27:03;17.33;;;6.87;;
5245;SDS011;54412;51.206;6.888;2022-10-31T03:29:33;13.60;;;6.27;;
5245;SDS011;54412;51.206;6.888;2022-10-31T03:34:42;9.33;;;6.63;;
5245;SDS011;54412;51.206;6.888;2022-10-31T03:37:11;16.40;;;6.67;;
5245;SDS011;54412;51.206;6.888;2022-10-31T03:39:43;14.63;;;6.13;;
5245;SDS011;54412;51.206;6.888;2022-10-31T03:42:14;12.90;;;7.03;;
5245;SDS011;54412;51.206;6.888;2022-10-31T03:44:48;18.13;;;8.97;;
5245;SDS011;54412;51.206;6.888;2022-10-31T03:47:25;13.80;;;6.80;;
5245;SDS011;54412;51.206;6.888;2022-10-31T03:49:51;16.00;;;6.60;;
5245;SDS011;54412;51.206;6.888;2022-10-31T03:55:18;13.07;;;6.37;;
5245;SDS011;54412;51.206;6.888;2022-10-31T03:57:56;16.40;;;7.13;;
5245;SDS011;54412;51.206;6.888;2022-10-31T04:00:25;9.77;;;6.23;;
5245;SDS011;54412;51.206;6.888;2022-10-31T04:03:03;18.30;;;6.83;;
5245;SDS011;54412;51.206;6.888;2022-10-31T04:05:42;15.97;;;6.80;;
5245;SDS011;54412;51.206;6.888;2022-10-31T04:08:14;10.40;;;7.47;;
5245;SDS011;54412;51.206;6.888;2022-10-31T04:10:45;10.10;;;6.77;;
5245;SDS011;54412;51.206;6.888;2022-10-31T04:13:15;14.00;;;6.57;;
5245;SDS011;54412;51.206;6.888;2022-10-31T04:15:51;14.87;;;7.10;;
5245;SDS011;54412;51.206;6.888;2022-10-31T04:18:19;10.70;;;6.83;;
5245;SDS011;54412;51.206;6.888;2022-10-31T04:20:47;20.30;;;7.80;;
5245;SDS011;54412;51.206;6.888;2022-10-31T04:23:19;17.73;;;6.67;;
5245;SDS011;54412;51.206;6.888;2022-10-31T04:25:49;14.17;;;6.27;;
5245;SDS011;54412;51.206;6.888;2022-10-31T04:28:14;16.97;;;7.30;;
5245;SDS011;54412;51.206;6.888;2022-10-31T04:30:40;19.93;;;7.20;;
5245;SDS011;54412;51.206;6.888;2022-10-31T04:33:06;12.87;;;6.67;;
5245;SDS011;54412;51.206;6.888;2022-10-31T04:35:31;12.00;;;6.93;;
5245;SDS011;54412;51.206;6.888;2022-10-31T04:37:57;11.57;;;7.57;;
5245;SDS011;54412;51.206;6.888;2022-10-31T04:40:22;15.97;;;7.10;;
5245;SDS011;54412;51.206;6.888;2022-10-31T04:42:48;8.97;;;7.33;;
5245;SDS011;54412;51.206;6.888;2022-10-31T04:45:14;9.83;;;6.77;;
5245;SDS011;54412;51.206;6.888;2022-10-31T04:47:39;19.90;;;6.10;;
5245;SDS011;54412;51.206;6.888;2022-10-31T04:50:05;11.60;;;6.63;;
5245;SDS011;54412;51.206;6.888;2022-10-31T04:52:31;15.70;;;7.20;;
5245;SDS011;54412;51.206;6.888;2022-10-31T04:54:57;10.93;;;6.60;;
5245;SDS011;54412;51.206;6.888;2022-10-31T04:57:22;14.30;;;7.63;;
5245;SDS011;54412;51.206;6.888;2022-10-31T04:59:48;18.70;;;8.00;;
5245;SDS011;54412;51.206;6.888;2022-10-31T05:02:14;11.73;;;7.07;;
5245;SDS011;54412;51.206;6.888;2022-10-31T05:04:39;12.50;;;7.80;;
5245;SDS011;54412;51.206;6.888;2022-10-31T05:07:05;17.33;;;7.77;;
5245;SDS011;54412;51.206;6.888;2022-10-31T05:09:31;16.80;;;7.83;;
5245;SDS011;54412;51.206;6.888;2022-10-31T05:11:56;16.67;;;7.20;;
5245;SDS011;54412;51.206;6.888;2022-10-31T05:14:22;15.53;;;7.70;;
5245;SDS011;54412;51.206;6.888;2022-10-31T05:16:47;11.43;;;7.30;;
5245;SDS011;54412;51.206;6.888;2022-10-31T05:19:13;13.80;;;7.67;;
5245;SDS011;54412;51.206;6.888;2022-10-31T05:21:39;14.27;;;6.63;;
5245;SDS011;54412;51.206;6.888;2022-10-31T05:24:04;18.33;;;7.50;;
5245;SDS011;54412;51.206;6.888;2022-10-31T05:26:31;12.37;;;7.57;;
5245;SDS011;54412;51.206;6.888;2022-10-31T05:28:56;15.30;;;7.90;;
5245;SDS011;54412;51.206;6.888;2022-10-31T05:31:22;16.40;;;7.93;;
5245;SDS011;54412;51.206;6.888;2022-10-31T05:33:48;15.00;;;7.70;;
5245;SDS011;54412;51.206;6.888;2022-10-31T05:36:13;12.30;;;7.20;;
5245;SDS011;54412;51.206;6.888;2022-10-31T05:38:39;12.27;;;7.00;;
5245;SDS011;54412;51.206;6.888;2022-10-31T05:41:05;13.90;;;6.50;;
5245;SDS011;54412;51.206;6.888;2022-10-31T05:43:30;12.30;;;6.50;;
5245;SDS011;54412;51.206;6.888;2022-10-31T05:45:56;14.80;;;7.53;;
5245;SDS011;54412;51.206;6.888;2022-10-31T05:48:22;9.50;;;6.93;;
5245;SDS011;54412;51.206;6.888;2022-10-31T05:50:48;12.80;;;6.77;;
5245;SDS011;54412;51.206;6.888;2022-10-31T05:53:14;12.80;;;5.77;;
5245;SDS011;54412;51.206;6.888;2022-10-31T05:55:41;17.07;;;8.00;;
5245;SDS011;54412;51.206;6.888;2022-10-31T05:58:08;11.73;;;6.40;;
5245;SDS011;54412;51.206;6.888;2022-10-31T06:00:35;10.40;;;6.60;;
5245;SDS011;54412;51.206;6.888;2022-10-31T06:03:02;16.80;;;7.93;;
5245;SDS011;54412;51.206;6.888;2022-10-31T06:05:31;14.63;;;7.23;;
5245;SDS011;54412;51.206;6.888;2022-10-31T06:07:58;16.27;;;7.67;;
5245;SDS011;54412;51.206;6.888;2022-10-31T06:10:24;15.80;;;7.13;;
5245;SDS011;54412;51.206;6.888;2022-10-31T06:12:50;13.20;;;7.33;;
5245;SDS011;54412;51.206;6.888;2022-10-31T06:15:16;15.43;;;8.17;;
5245;SDS011;54412;51.206;6.888;2022-10-31T06:17:42;9.63;;;6.70;;
5245;SDS011;54412;51.206;6.888;2022-10-31T06:20:08;11.10;;;6.77;;
5245;SDS011;54412;51.206;6.888;2022-10-31T06:22:35;11.00;;;6.97;;
5245;SDS011;54412;51.206;6.888;2022-10-31T06:25:00;14.23;;;7.27;;
5245;SDS011;54412;51.206;6.888;2022-10-31T06:27:27;11.13;;;7.43;;
5245;SDS011;54412;51.206;6.888;2022-10-31T06:29:52;20.03;;;6.90;;
5245;SDS011;54412;51.206;6.888;2022-10-31T06:32:18;18.33;;;8.20;;
5245;SDS011;54412;51.206;6.888;2022-10-31T06:34:44;10.57;;;6.77;;
5245;SDS011;54412;51.206;6.888;2022-10-31T06:37:13;12.40;;;7.20;;
5245;SDS011;54412;51.206;6.888;2022-10-31T06:39:39;20.10;;;7.20;;
5245;SDS011;54412;51.206;6.888;2022-10-31T06:42:05;9.93;;;5.90;;
5245;SDS011;54412;51.206;6.888;2022-10-31T06:44:31;13.53;;;6.77;;
5245;SDS011;54412;51.206;6.888;2022-10-31T06:46:57;15.73;;;7.17;;
5245;SDS011;54412;51.206;6.888;2022-10-31T06:49:22;13.10;;;7.30;;
5245;SDS011;54412;51.206;6.888;2022-10-31T06:51:48;14.17;;;7.57;;
5245;SDS011;54412;51.206;6.888;2022-10-31T06:54:15;15.50;;;7.97;;
5245;SDS011;54412;51.206;6.888;2022-10-31T06:56:41;13.93;;;8.60;;
5245;SDS011;54412;51.206;6.888;2022-10-31T06:59:07;20.80;;;9.40;;
5245;SDS011;54412;51.206;6.888;2022-10-31T07:01:33;19.13;;;8.20;;
5245;SDS011;54412;51.206;6.888;2022-10-31T07:03:59;11.57;;;7.40;;
5245;SDS011;54412;51.206;6.888;2022-10-31T07:06:24;11.37;;;8.63;;
5245;SDS011;54412;51.206;6.888;2022-10-31T07:08:50;13.10;;;7.60;;
5245;SDS011;54412;51.206;6.888;2022-10-31T07:11:16;18.23;;;8.50;;
5245;SDS011;54412;51.206;6.888;2022-10-31T07:13:41;19.90;;;7.90;;
5245;SDS011;54412;51.206;6.888;2022-10-31T07:16:07;22.13;;;8.83;;
5245;SDS011;54412;51.206;6.888;2022-10-31T07:18:35;15.80;;;8.50;;
5245;SDS011;54412;51.206;6.888;2022-10-31T07:21:01;13.70;;;8.53;;
5245;SDS011;54412;51.206;6.888;2022-10-31T07:23:27;10.93;;;7.33;;
5245;SDS011;54412;51.206;6.888;2022-10-31T07:25:55;14.00;;;8.70;;
5245;SDS011;54412;51.206;6.888;2022-10-31T07:28:23;18.30;;;9.20;;
5245;SDS011;54412;51.206;6.888;2022-10-31T07:30:54;13.80;;;7.60;;
5245;SDS011;54412;51.206;6.888;2022-10-31T07:33:22;22.33;;;8.60;;
5245;SDS011;54412;51.206;6.888;2022-10-31T07:35:52;14.03;;;8.70;;
5245;SDS011;54412;51.206;6.888;2022-10-31T07:38:18;13.20;;;8.77;;
5245;SDS011;54412;51.206;6.888;2022-10-31T07:40:48;13.83;;;8.37;;
5245;SDS011;54412;51.206;6.888;2022-10-31T07:43:19;11.93;;;8.33;;
5245;SDS011;54412;51.206;6.888;2022-10-31T07:45:48;16.60;;;9.03;;
5245;SDS011;54412;51.206;6.888;2022-10-31T07:48:18;14.50;;;8.17;;
5245;SDS011;54412;51.206;6.888;2022-10-31T07:50:44;17.37;;;8.23;;
5245;SDS011;54412;51.206;6.888;2022-10-31T07:53:11;15.27;;;7.93;;
5245;SDS011;54412;51.206;6.888;2022-10-31T07:55:38;22.83;;;8.07;;
5245;SDS011;54412;51.206;6.888;2022-10-31T07:58:06;15.67;;;9.03;;
5245;SDS011;54412;51.206;6.888;2022-10-31T08:00:38;16.73;;;8.47;;
5245;SDS011;54412;51.206;6.888;2022-10-31T08:03:07;20.03;;;8.90;;
5245;SDS011;54412;51.206;6.888;2022-10-31T08:05:41;18.10;;;8.97;;
5245;SDS011;54412;51.206;6.888;2022-10-31T08:08:09;15.80;;;8.30;;
5245;SDS011;54412;51.206;6.888;2022-10-31T08:10:35;18.23;;;9.20;;
5245;SDS011;54412;51.206;6.888;2022-10-31T08:13:05;22.07;;;8.70;;
5245;SDS011;54412;51.206;6.888;2022-10-31T08:15:35;16.53;;;9.60;;
5245;SDS011;54412;51.206;6.888;2022-10-31T08:18:04;14.23;;;8.47;;
5245;SDS011;54412;51.206;6.888;2022-10-31T08:20:31;17.60;;;9.60;;
5245;SDS011;54412;51.206;6.888;2022-10-31T08:22:58;21.07;;;8.90;;
5245;SDS011;54412;51.206;6.888;2022-10-31T08:25:29;19.70;;;9.47;;
5245;SDS011;54412;51.206;6.888;2022-10-31T08:27:57;16.77;;;10.40;;
5245;SDS011;54412;51.206;6.888;2022-10-31T08:30:24;18.50;;;10.80;;
5245;SDS011;54412;51.206;6.888;2022-10-31T08:33:12;17.00;;;11.50;;
5245;SDS011;54412;51.206;6.888;2022-10-31T08:35:42;20.80;;;11.10;;
5245;SDS011;54412;51.206;6.888;2022-10-31T08:38:09;29.70;;;12.70;;
5245;SDS011;54412;51.206;6.888;2022-10-31T08:40:37;25.20;;;12.20;;
5245;SDS011;54412;51.206;6.888;2022-10-31T08:43:04;16.77;;;11.03;;
5245;SDS011;54412;51.206;6.888;2022-10-31T08:45:39;17.37;;;10.57;;
5245;SDS011;54412;51.206;6.888;2022-10-31T08:48:06;16.67;;;10.73;;
5245;SDS011;54412;51.206;6.888;2022-10-31T08:50:35;17.87;;;10.30;;
5245;SDS011;54412;51.206;6.888;2022-10-31T08:53:06;18.07;;;10.83;;
5245;SDS011;54412;51.206;6.888;2022-10-31T08:55:36;24.03;;;12.00;;
5245;SDS011;54412;51.206;6.888;2022-10-31T08:58:05;16.10;;;11.13;;
5245;SDS011;54412;51.206;6.888;2022-10-31T09:00:34;25.00;;;11.83;;
5245;SDS011;54412;51.206;6.888;2022-10-31T09:03:04;25.73;;;11.23;;
5245;SDS011;54412;51.206;6.888;2022-10-31T09:05:35;16.03;;;10.43;;
5245;SDS011;54412;51.206;6.888;2022-10-31T09:08:02;29.63;;;11.67;;
5245;SDS011;54412;51.206;6.888;2022-10-31T09:10:30;17.43;;;10.73;;
5245;SDS011;54412;51.206;6.888;2022-10-31T09:13:17;21.87;;;11.40;;
5245;SDS011;54412;51.206;6.888;2022-10-31T09:15:45;29.70;;;11.63;;
5245;SDS011;54412;51.206;6.888;2022-10-31T09:18:14;19.73;;;11.93;;
5245;SDS011;54412;51.206;6.888;2022-10-31T09:20:42;29.13;;;11.87;;
5245;SDS011;54412;51.206;6.888;2022-10-31T09:23:13;24.20;;;12.07;;
5245;SDS011;54412;51.206;6.888;2022-10-31T09:25:44;28.50;;;12.17;;
5245;SDS011;54412;51.206;6.888;2022-10-31T09:28:12;19.10;;;10.50;;
5245;SDS011;54412;51.206;6.888;2022-10-31T09:30:40;27.00;;;13.07;;
5245;SDS011;54412;51.206;6.888;2022-10-31T09:33:10;18.40;;;11.43;;
5245;SDS011;54412;51.206;6.888;2022-10-31T09:35:38;19.23;;;11.07;;
5245;SDS011;54412;51.206;6.888;2022-10-31T09:38:05;20.63;;;11.87;;
5245;SDS011;54412;51.206;6.888;2022-10-31T09:45:42;26.37;;;13.47;;
5245;SDS011;54412;51.206;6.888;2022-10-31T09:48:32;24.63;;;12.90;;
5245;SDS011;54412;51.206;6.888;2022-10-31T09:51:03;25.40;;;12.87;;
5245;SDS011;54412;51.206;6.888;2022-10-31T09:53:39;27.90;;;12.60;;
5245;SDS011;54412;51.206;6.888;2022-10-31T09:56:19;17.20;;;11.20;;
5245;SDS011;54412;51.206;6.888;2022-10-31T09:58:53;22.13;;;12.60;;
5245;SDS011;54412;51.206;6.888;2022-10-31T10:01:45;18.37;;;11.40;;
5245;SDS011;54412;51.206;6.888;2022-10-31T10:04:49;20.73;;;11.47;;
5245;SDS011;54412;51.206;6.888;2022-10-31T10:10:29;21.83;;;12.10;;
5245;SDS011;54412;51.206;6.888;2022-10-31T10:24:53;21.67;;;11.17;;
5245;SDS011;54412;51.206;6.888;2022-10-31T10:30:38;21.63;;;10.83;;
5245;SDS011;54412;51.206;6.888;2022-10-31T10:33:14;21.20;;;11.50;;
5245;SDS011;54412;51.206;6.888;2022-10-31T10:35:49;20.93;;;11.20;;
5245;SDS011;54412;51.206;6.888;2022-10-31T10:41:06;14.17;;;9.50;;
5245;SDS011;54412;51.206;6.888;2022-10-31T10:43:41;22.13;;;10.43;;
5245;SDS011;54412;51.206;6.888;2022-10-31T10:46:16;26.77;;;11.90;;
5245;SDS011;54412;51.206;6.888;2022-10-31T10:49:45;25.23;;;10.73;;
5245;SDS011;54412;51.206;6.888;2022-10-31T10:52:33;24.50;;;10.10;;
5245;SDS011;54412;51.206;6.888;2022-10-31T10:55:16;20.30;;;10.53;;
5245;SDS011;54412;51.206;6.888;2022-10-31T10:58:00;17.50;;;11.30;;
5245;SDS011;54412;51.206;6.888;2022-10-31T11:00:34;20.03;;;9.60;;
5245;SDS011;54412;51.206;6.888;2022-10-31T11:03:11;19.97;;;10.53;;
5245;SDS011;54412;51.206;6.888;2022-10-31T11:05:39;25.67;;;10.30;;
5245;SDS011;54412;51.206;6.888;2022-10-31T11:08:23;14.70;;;9.50;;
5245;SDS011;54412;51.206;6.888;2022-10-31T11:13:58;17.47;;;8.57;;
5245;SDS011;54412;51.206;6.888;2022-10-31T11:19:33;16.80;;;8.23;;
5245;SDS011;54412;51.206;6.888;2022-10-31T11:21:52;20.37;;;7.73;;
5245;SDS011;54412;51.206;6.888;2022-10-31T11:24:20;14.90;;;7.97;;
5245;SDS011;54412;51.206;6.888;2022-10-31T11:26:50;17.73;;;7.83;;
5245;SDS011;54412;51.206;6.888;2022-10-31T11:29:27;19.27;;;7.67;;
5245;SDS011;54412;51.206;6.888;2022-10-31T11:31:53;12.33;;;7.80;;
5245;SDS011;54412;51.206;6.888;2022-10-31T11:34:35;13.27;;;8.30;;
5245;SDS011;54412;51.206;6.888;2022-10-31T11:37:18;19.80;;;7.43;;
5245;SDS011;54412;51.206;6.888;2022-10-31T11:39:55;15.90;;;6.83;;
5245;SDS011;54412;51.206;6.888;2022-10-31T11:42:26;16.13;;;7.20;;
5245;SDS011;54412;51.206;6.888;2022-10-31T11:45:28;12.17;;;6.60;;
5245;SDS011;54412;51.206;6.888;2022-10-31T11:47:58;16.23;;;7.60;;
5245;SDS011;54412;51.206;6.888;2022-10-31T11:50:28;13.23;;;6.70;;
5245;SDS011;54412;51.206;6.888;2022-10-31T11:53:01;13.50;;;5.50;;
5245;SDS011;54412;51.206;6.888;2022-10-31T11:55:29;16.00;;;6.40;;
5245;SDS011;54412;51.206;6.888;2022-10-31T11:58:02;11.37;;;5.40;;
5245;SDS011;54412;51.206;6.888;2022-10-31T12:00:47;12.00;;;5.53;;
5245;SDS011;54412;51.206;6.888;2022-10-31T12:05:49;16.07;;;4.70;;
5245;SDS011;54412;51.206;6.888;2022-10-31T12:08:31;19.13;;;4.60;;
5245;SDS011;54412;51.206;6.888;2022-10-31T12:11:08;10.40;;;5.37;;
5245;SDS011;54412;51.206;6.888;2022-10-31T12:23:19;14.70;;;4.80;;
5245;SDS011;54412;51.206;6.888;2022-10-31T12:26:26;7.63;;;4.30;;
5245;SDS011;54412;51.206;6.888;2022-10-31T12:40:44;12.70;;;4.17;;
5245;SDS011;54412;51.206;6.888;2022-10-31T12:55:29;7.90;;;4.43;;
5245;SDS011;54412;51.206;6.888;2022-10-31T12:58:17;10.63;;;4.07;;
5245;SDS011;54412;51.206;6.888;2022-10-31T13:00:46;15.80;;;4.40;;
5245;SDS011;54412;51.206;6.888;2022-10-31T13:03:35;8.97;;;4.50;;
5245;SDS011;54412;51.206;6.888;2022-10-31T13:06:14;15.50;;;4.40;;
5245;SDS011;54412;51.206;6.888;2022-10-31T13:08:51;13.30;;;4.13;;
5245;SDS011;54412;51.206;6.888;2022-10-31T13:11:22;7.97;;;3.97;;
5245;SDS011;54412;51.206;6.888;2022-10-31T13:16:37;10.73;;;4.60;;
5245;SDS011;54412;51.206;6.888;2022-10-31T13:22:03;19.67;;;4.23;;
5245;SDS011;54412;51.206;6.888;2022-10-31T13:24:57;9.50;;;3.70;;
5245;SDS011;54412;51.206;6.888;2022-10-31T13:27:44;20.77;;;3.97;;
5245;SDS011;54412;51.206;6.888;2022-10-31T13:30:23;9.70;;;4.33;;
5245;SDS011;54412;51.206;6.888;2022-10-31T13:35:48;10.77;;;4.23;;
5245;SDS011;54412;51.206;6.888;2022-10-31T13:38:48;12.20;;;3.67;;
5245;SDS011;54412;51.206;6.888;2022-10-31T13:41:40;9.43;;;4.43;;
5245;SDS011;54412;51.206;6.888;2022-10-31T13:44:38;9.70;;;4.20;;
5245;SDS011;54412;51.206;6.888;2022-10-31T13:47:04;11.17;;;3.80;;
5245;SDS011;54412;51.206;6.888;2022-10-31T13:53:08;12.97;;;4.90;;
5245;SDS011;54412;51.206;6.888;2022-10-31T13:55:44;8.73;;;4.00;;
5245;SDS011;54412;51.206;6.888;2022-10-31T13:58:23;7.27;;;4.37;;
5245;SDS011;54412;51.206;6.888;2022-10-31T14:03:28;12.07;;;4.30;;
5245;SDS011;54412;51.206;6.888;2022-10-31T14:05:58;12.80;;;4.37;;
5245;SDS011;54412;51.206;6.888;2022-10-31T14:08:24;15.87;;;4.43;;
5245;SDS011;54412;51.206;6.888;2022-10-31T14:10:50;13.50;;;3.80;;
5245;SDS011;54412;51.206;6.888;2022-10-31T14:13:21;7.67;;;4.97;;
5245;SDS011;54412;51.206;6.888;2022-10-31T14:18:37;8.63;;;4.10;;
5245;SDS011;54412;51.206;6.888;2022-10-31T14:24:51;13.43;;;4.37;;
5245;SDS011;54412;51.206;6.888;2022-10-31T14:26:53;15.50;;;4.60;;
5245;SDS011;54412;51.206;6.888;2022-10-31T14:29:30;22.10;;;4.57;;
5245;SDS011;54412;51.206;6.888;2022-10-31T14:32:13;10.03;;;3.80;;
5245;SDS011;54412;51.206;6.888;2022-10-31T14:46:33;12.17;;;4.20;;
5245;SDS011;54412;51.206;6.888;2022-10-31T14:49:24;16.87;;;4.90;;
5245;SDS011;54412;51.206;6.888;2022-10-31T14:52:07;9.20;;;4.40;;
5245;SDS011;54412;51.206;6.888;2022-10-31T14:54:40;11.13;;;4.70;;
5245;SDS011;54412;51.206;6.888;2022-10-31T14:57:15;8.33;;;4.00;;
5245;SDS011;54412;51.206;6.888;2022-10-31T14:59:54;12.60;;;4.43;;
5245;SDS011;54412;51.206;6.888;2022-10-31T15:05:48;9.40;;;4.20;;
5245;SDS011;54412;51.206;6.888;2022-10-31T15:08:37;9.40;;;4.43;;
5245;SDS011;54412;51.206;6.888;2022-10-31T15:11:12;10.13;;;3.67;;
5245;SDS011;54412;51.206;6.888;2022-10-31T15:13:48;9.80;;;3.30;;
5245;SDS011;54412;51.206;6.888;2022-10-31T15:16:17;10.57;;;4.00;;
5245;SDS011;54412;51.206;6.888;2022-10-31T15:18:53;6.23;;;3.20;;
5245;SDS011;54412;51.206;6.888;2022-10-31T15:21:26;11.80;;;4.30;;
5245;SDS011;54412;51.206;6.888;2022-10-31T15:23:54;13.07;;;4.37;;
5245;SDS011;54412;51.206;6.888;2022-10-31T15:26:24;13.77;;;3.87;;
5245;SDS011;54412;51.206;6.888;2022-10-31T15:29:04;9.87;;;4.10;;
5245;SDS011;54412;51.206;6.888;2022-10-31T15:31:36;11.77;;;3.40;;
5245;SDS011;54412;51.206;6.888;2022-10-31T15:34:04;6.93;;;2.97;;
5245;SDS011;54412;51.206;6.888;2022-10-31T15:36:41;9.70;;;3.60;;
5245;SDS011;54412;51.206;6.888;2022-10-31T15:39:10;17.50;;;3.97;;
5245;SDS011;54412;51.206;6.888;2022-10-31T15:41:46;17.80;;;4.20;;
5245;SDS011;54412;51.206;6.888;2022-10-31T15:44:19;10.20;;;4.27;;
5245;SDS011;54412;51.206;6.888;2022-10-31T15:46:52;14.60;;;3.97;;
5245;SDS011;54412;51.206;6.888;2022-10-31T15:49:27;12.10;;;4.10;;
5245;SDS011;54412;51.206;6.888;2022-10-31T15:52:06;7.63;;;3.63;;
5245;SDS011;54412;51.206;6.888;2022-10-31T15:54:45;11.37;;;3.90;;
5245;SDS011;54412;51.206;6.888;2022-10-31T15:57:15;13.50;;;3.60;;
5245;SDS011;54412;51.206;6.888;2022-10-31T15:59:44;15.10;;;3.83;;
5245;SDS011;54412;51.206;6.888;2022-10-31T16:02:13;7.60;;;3.60;;
5245;SDS011;54412;51.206;6.888;2022-10-31T16:04:48;10.03;;;3.87;;
5245;SDS011;54412;51.206;6.888;2022-10-31T16:07:23;10.50;;;3.60;;
5245;SDS011;54412;51.206;6.888;2022-10-31T16:09:51;10.83;;;3.50;;
5245;SDS011;54412;51.206;6.888;2022-10-31T16:12:21;9.23;;;3.13;;
5245;SDS011;54412;51.206;6.888;2022-10-31T16:14:50;9.73;;;3.40;;
5245;SDS011;54412;51.206;6.888;2022-10-31T16:17:19;8.00;;;3.50;;
5245;SDS011;54412;51.206;6.888;2022-10-31T16:22:30;6.43;;;3.67;;
5245;SDS011;54412;51.206;6.888;2022-10-31T16:25:04;19.07;;;3.70;;
5245;SDS011;54412;51.206;6.888;2022-10-31T16:27:39;11.30;;;3.90;;
5245;SDS011;54412;51.206;6.888;2022-10-31T16:35:52;6.60;;;3.40;;
5245;SDS011;54412;51.206;6.888;2022-10-31T16:38:20;14.00;;;3.60;;
5245;SDS011;54412;51.206;6.888;2022-10-31T16:40:46;11.03;;;3.50;;
5245;SDS011;54412;51.206;6.888;2022-10-31T16:43:12;11.70;;;3.80;;
5245;SDS011;54412;51.206;6.888;2022-10-31T16:45:47;11.00;;;3.80;;
5245;SDS011;54412;51.206;6.888;2022-10-31T16:48:16;14.97;;;3.37;;
5245;SDS011;54412;51.206;6.888;2022-10-31T16:50:46;9.67;;;3.50;;
5245;SDS011;54412;51.206;6.888;2022-10-31T16:53:14;13.90;;;3.10;;
5245;SDS011;54412;51.206;6.888;2022-10-31T16:55:41;14.83;;;3.63;;
5245;SDS011;54412;51.206;6.888;2022-10-31T16:58:21;13.20;;;3.97;;
5245;SDS011;54412;51.206;6.888;2022-10-31T17:00:59;13.10;;;3.63;;
5245;SDS011;54412;51.206;6.888;2022-10-31T17:03:27;12.53;;;3.30;;
5245;SDS011;54412;51.206;6.888;2022-10-31T17:05:52;13.20;;;3.07;;
5245;SDS011;54412;51.206;6.888;2022-10-31T17:08:20;13.30;;;3.83;;
5245;SDS011;54412;51.206;6.888;2022-10-31T17:10:46;7.53;;;3.50;;
5245;SDS011;54412;51.206;6.888;2022-10-31T17:13:17;10.00;;;3.90;;
5245;SDS011;54412;51.206;6.888;2022-10-31T17:15:49;15.00;;;4.30;;
5245;SDS011;54412;51.206;6.888;2022-10-31T17:18:18;7.27;;;2.87;;
5245;SDS011;54412;51.206;6.888;2022-10-31T17:20:44;13.67;;;3.90;;
5245;SDS011;54412;51.206;6.888;2022-10-31T17:23:13;10.90;;;4.00;;
5245;SDS011;54412;51.206;6.888;2022-10-31T17:25:40;11.67;;;3.60;;
5245;SDS011;54412;51.206;6.888;2022-10-31T17:28:10;12.23;;;3.30;;
5245;SDS011;54412;51.206;6.888;2022-10-31T17:30:38;9.30;;;3.73;;
5245;SDS011;54412;51.206;6.888;2022-10-31T17:33:06;10.40;;;3.17;;
5245;SDS011;54412;51.206;6.888;2022-10-31T17:35:36;7.93;;;3.53;;
5245;SDS011;54412;51.206;6.888;2022-10-31T17:38:01;6.83;;;3.10;;
5245;SDS011;54412;51.206;6.888;2022-10-31T17:40:27;8.53;;;3.40;;
5245;SDS011;54412;51.206;6.888;2022-10-31T17:42:53;8.93;;;3.13;;
5245;SDS011;54412;51.206;6.888;2022-10-31T17:45:22;8.13;;;3.00;;